Jp Tsubaki — JD2817 — position and weather

sailwx.info

Track history (hours):
 
Tides and Currents Weather Stations Pressure Air Temp Water Temp Dewpoint Dewpoint Depression Visibility Wind Speed Wind Dir Waves Ship Positions

Jp Tsubaki

Last reported at 2015-Jan-25 23:30 UTC. Time now 2015-Jan-26 00:25 UTC.
Position N 35°24' E 139°39'.

Length 115 m; draft 6.5 m.

Type: Cargo ship. MMSI: 431000734.

Date/timePositionNaut miles runAvg speedWind from/ knotsBaromVisibWave heightAir tempDewpointWater temp
2015-Jan-25 23:30N 35°24' E 139°39'0 0.0
2015-Jan-25 22:33N 35°24' E 139°39'0 0.0
2015-Jan-25 21:30N 35°24' E 139°39'0 0.0
2015-Jan-25 20:33N 35°24' E 139°39'0 0.0
2015-Jan-25 19:30N 35°24' E 139°39'0 0.0
2015-Jan-25 18:33N 35°24' E 139°39'0 0.0
2015-Jan-25 17:30N 35°24' E 139°39'0 0.0
2015-Jan-25 16:30N 35°24' E 139°39'0 0.0
2015-Jan-25 15:33N 35°24' E 139°39'0 0.0
2015-Jan-25 14:33N 35°24' E 139°39'0 0.3
2015-Jan-25 13:34N 35°24' E 139°38'9 8.8
2015-Jan-25 12:33N 35°29' E 139°47'3 3.0
2015-Jan-25 11:33N 35°30' E 139°44'0 0.0
2015-Jan-25 10:33N 35°30' E 139°44'0 0.0
2015-Jan-25 09:33N 35°30' E 139°44'0 0.0
2015-Jan-25 08:27N 35°30' E 139°44'0 0.0
2015-Jan-25 07:33N 35°30' E 139°44'0 0.0
2015-Jan-25 06:33N 35°30' E 139°44'0 0.0
2015-Jan-25 05:33N 35°30' E 139°44'1 1.0
2015-Jan-25 04:33N 35°29' E 139°43'6 5.7
2015-Jan-25 03:34N 35°24' E 139°44'0 0.0
2015-Jan-25 02:31N 35°24' E 139°44'0 0.0
2015-Jan-25 01:28N 35°24' E 139°44'0 0.0
2015-Jan-25 00:31N 35°24' E 139°44'0 0.0
2015-Jan-24 23:33N 35°24' E 139°44'5 4.7
2015-Jan-24 22:33N 35°24' E 139°39'0 0.0
2015-Jan-24 21:31N 35°24' E 139°39'0 0.0
2015-Jan-24 20:31N 35°24' E 139°39'0 0.0
2015-Jan-24 19:31N 35°24' E 139°39'0 0.0
2015-Jan-24 18:32N 35°24' E 139°39'0 0.0
2015-Jan-24 17:29N 35°24' E 139°39'0 0.0
2015-Jan-24 16:31N 35°24' E 139°39'0 0.0
2015-Jan-24 15:29N 35°24' E 139°39'3 3.2
2015-Jan-24 14:33N 35°23' E 139°42'2 1.7
2015-Jan-24 13:33N 35°24' E 139°44'0 0.0
2015-Jan-24 12:33N 35°24' E 139°44'0 0.0
2015-Jan-24 11:33N 35°24' E 139°44'0 0.0
2015-Jan-24 10:33N 35°24' E 139°44'0 0.1
2015-Jan-24 09:33N 35°24' E 139°44'0 0.0
2015-Jan-24 08:33N 35°24' E 139°44'0 0.0
2015-Jan-24 07:33N 35°24' E 139°44'0 0.0
2015-Jan-24 06:33N 35°24' E 139°44'0 0.1
2015-Jan-24 05:33N 35°24' E 139°44'0 0.0
2015-Jan-24 04:33N 35°24' E 139°44'0 0.0
2015-Jan-24 03:33N 35°24' E 139°44'0 0.1
2015-Jan-24 02:33N 35°24' E 139°44'7 6.6
2015-Jan-24 01:33N 35°30' E 139°48'3 3.4
2015-Jan-24 00:33N 35°30' E 139°44'0 0.0
2015-Jan-23 23:32N 35°30' E 139°44'0 0.0
2015-Jan-23 22:32N 35°30' E 139°44'0 0.0
2015-Jan-23 21:32N 35°30' E 139°44'0 0.0
2015-Jan-23 20:32N 35°30' E 139°44'0 0.0
2015-Jan-23 19:32N 35°30' E 139°44'0 0.0
2015-Jan-23 18:32N 35°30' E 139°44'0 0.0
2015-Jan-23 17:32N 35°30' E 139°44'0 0.0
2015-Jan-23 16:33N 35°30' E 139°44'4 3.6
2015-Jan-23 15:33N 35°26' E 139°43'5 4.6
2015-Jan-23 14:33N 35°24' E 139°39'0 0.0
2015-Jan-23 13:33N 35°24' E 139°39'0 0.0
2015-Jan-23 12:33N 35°24' E 139°39'0 0.0
2015-Jan-23 11:33N 35°24' E 139°39'0 0.0
2015-Jan-23 10:33N 35°24' E 139°39'0 0.0
2015-Jan-23 09:33N 35°24' E 139°39'0 0.0
2015-Jan-23 08:33N 35°24' E 139°39'0 0.0
2015-Jan-23 07:33N 35°24' E 139°39'1 0.7
2015-Jan-23 06:33N 35°24' E 139°39'5 4.8
2015-Jan-23 05:33N 35°23' E 139°45'0 0.0
2015-Jan-23 04:33N 35°23' E 139°45'0 0.0
2015-Jan-23 03:24N 35°23' E 139°45'0 0.0
2015-Jan-23 02:33N 35°23' E 139°45'0 0.1
2015-Jan-23 01:33N 35°23' E 139°45'0 0.0
2015-Jan-23 00:33N 35°23' E 139°45'0 0.0
2015-Jan-22 23:33N 35°23' E 139°45'6 5.8
2015-Jan-22 22:33N 35°28' E 139°48'4 4.1
2015-Jan-22 21:33N 35°30' E 139°44'0 0.0
2015-Jan-22 20:33N 35°30' E 139°44'0 0.0
2015-Jan-22 19:33N 35°30' E 139°44'0 0.0
2015-Jan-22 18:33N 35°30' E 139°44'0 0.0
2015-Jan-22 17:33N 35°30' E 139°44'0 0.0
2015-Jan-22 16:33N 35°30' E 139°44'0 0.0
2015-Jan-22 15:33N 35°30' E 139°44'0 0.0
2015-Jan-22 14:33N 35°30' E 139°44'0 0.0
2015-Jan-22 13:33N 35°30' E 139°44'0 0.0
2015-Jan-22 12:33N 35°30' E 139°44'0 0.0
2015-Jan-22 11:33N 35°30' E 139°44'0 0.0
2015-Jan-22 10:33N 35°30' E 139°44'0 0.0
2015-Jan-22 09:33N 35°30' E 139°44'0 0.0
2015-Jan-22 08:33N 35°30' E 139°44'5 4.7
2015-Jan-22 07:33N 35°25' E 139°43'4 3.7
2015-Jan-22 06:33N 35°24' E 139°39'0 0.1
2015-Jan-22 05:33N 35°24' E 139°39'0 0.1
2015-Jan-22 04:33N 35°24' E 139°39'0 0.0
2015-Jan-22 03:33N 35°24' E 139°39'0 0.0
2015-Jan-22 02:30N 35°24' E 139°39'0 0.0
2015-Jan-22 01:33N 35°24' E 139°39'0 0.0
2015-Jan-22 00:33N 35°24' E 139°39'0 0.0
2015-Jan-21 23:33N 35°24' E 139°39'0 0.0
2015-Jan-21 22:48N 35°24' E 139°39'0 0.0
2015-Jan-21 22:45N 35°24' E 139°39'0 0.0
2015-Jan-21 22:33N 35°24' E 139°39'0 0.0
2015-Jan-21 21:33N 35°24' E 139°39'0 0.0
2015-Jan-21 20:33N 35°24' E 139°39'0 0.0
2015-Jan-21 19:33N 35°24' E 139°39'0 0.0
2015-Jan-21 18:33N 35°24' E 139°39'0 0.0
2015-Jan-21 17:30N 35°24' E 139°39'0 0.0
2015-Jan-21 16:33N 35°24' E 139°39'0 0.3
2015-Jan-21 15:33N 35°24' E 139°38'9 9.0
2015-Jan-21 14:34N 35°29' E 139°47'3 3.1
2015-Jan-21 13:33N 35°30' E 139°44'0 0.0
2015-Jan-21 12:33N 35°30' E 139°44'0 0.0
2015-Jan-21 11:33N 35°30' E 139°44'0 0.0
2015-Jan-21 10:33N 35°30' E 139°44'0 0.0
2015-Jan-21 09:33N 35°30' E 139°44'0 0.0
2015-Jan-21 08:34N 35°30' E 139°44'0 0.0
2015-Jan-21 07:30N 35°30' E 139°44'0 0.0
2015-Jan-21 06:33N 35°30' E 139°44'0 0.0
2015-Jan-21 05:33N 35°30' E 139°44'2 1.6
2015-Jan-21 04:34N 35°29' E 139°42'6 5.8
2015-Jan-21 03:34N 35°24' E 139°39'0 0.0
2015-Jan-21 02:33N 35°24' E 139°39'0 0.0
2015-Jan-21 01:33N 35°24' E 139°39'0 0.0
2015-Jan-21 00:33N 35°24' E 139°39'0 0.0
2015-Jan-20 23:33N 35°24' E 139°39'0 0.0
2015-Jan-20 22:33N 35°24' E 139°39'0 0.0
2015-Jan-20 21:33N 35°24' E 139°39'0 0.0
2015-Jan-20 20:33N 35°24' E 139°39'0 0.0
2015-Jan-20 19:30N 35°24' E 139°39'0 0.0
2015-Jan-20 18:33N 35°24' E 139°39'0 0.0
2015-Jan-20 17:33N 35°24' E 139°39'0 0.0
2015-Jan-20 16:33N 35°24' E 139°39'0 0.0
2015-Jan-20 15:33N 35°24' E 139°39'0 0.0
2015-Jan-20 14:33N 35°24' E 139°39'2 2.2
2015-Jan-20 13:34N 35°24' E 139°41'8 7.8
2015-Jan-20 12:34N 35°30' E 139°46'2 2.1
2015-Jan-20 11:33N 35°30' E 139°43'0 0.0
2015-Jan-20 10:33N 35°30' E 139°43'0 0.0
2015-Jan-20 09:33N 35°30' E 139°43'0 0.0
2015-Jan-20 08:33N 35°30' E 139°43'0 0.0
2015-Jan-20 07:33N 35°30' E 139°43'0 0.0
2015-Jan-20 06:33N 35°30' E 139°43'0 0.0
2015-Jan-20 05:30N 35°30' E 139°43'2 2.0
2015-Jan-20 04:33N 35°28' E 139°42'5 4.7
2015-Jan-20 03:33N 35°24' E 139°44'0 0.0
2015-Jan-20 02:33N 35°24' E 139°44'0 0.0
2015-Jan-20 01:22N 35°24' E 139°44'0 0.0
2015-Jan-20 00:31N 35°24' E 139°44'0 0.0
2015-Jan-19 23:28N 35°24' E 139°44'0 0.0
2015-Jan-19 22:31N 35°24' E 139°44'0 0.0
2015-Jan-19 21:31N 35°24' E 139°44'0 0.0
2015-Jan-19 20:31N 35°24' E 139°44'0 0.0
2015-Jan-19 19:31N 35°24' E 139°44'0 0.1
2015-Jan-19 18:31N 35°24' E 139°44'0 0.1
2015-Jan-19 17:31N 35°24' E 139°44'0 0.0
2015-Jan-19 16:31N 35°24' E 139°44'0 0.0
2015-Jan-19 15:31N 35°24' E 139°44'0 0.0
2015-Jan-19 14:31N 35°24' E 139°44'0 0.1
2015-Jan-19 13:34N 35°24' E 139°44'5 4.5
2015-Jan-19 12:34N 35°24' E 139°39'0 0.0
2015-Jan-19 11:34N 35°24' E 139°39'0 0.0
2015-Jan-19 10:31N 35°24' E 139°39'0 0.0
2015-Jan-19 09:31N 35°24' E 139°39'0 0.0
2015-Jan-19 08:31N 35°24' E 139°39'0 0.0
2015-Jan-19 07:31N 35°24' E 139°39'0 0.0
2015-Jan-19 06:31N 35°24' E 139°39'0 0.0
2015-Jan-19 05:31N 35°24' E 139°39'1 1.2
2015-Jan-19 04:33N 35°24' E 139°40'0 0.1
2015-Jan-19 03:33N 35°24' E 139°40'0 0.0
2015-Jan-19 02:33N 35°24' E 139°40'0 0.0
2015-Jan-19 01:33N 35°24' E 139°40'0 0.0
2015-Jan-19 00:33N 35°24' E 139°40'0 0.0
2015-Jan-18 23:33N 35°24' E 139°40'0 0.0
2015-Jan-18 22:33N 35°24' E 139°40'1 0.5
2015-Jan-18 21:34N 35°24' E 139°40'3 3.2
2015-Jan-18 20:32N 35°22' E 139°44'0 0.0
2015-Jan-18 19:32N 35°22' E 139°44'0 0.0
2015-Jan-18 18:32N 35°22' E 139°44'0 0.0
2015-Jan-18 17:32N 35°22' E 139°44'0 0.1
2015-Jan-18 16:32N 35°22' E 139°44'0 0.0
2015-Jan-18 15:32N 35°22' E 139°44'0 0.0
2015-Jan-18 14:32N 35°22' E 139°44'0 0.1
2015-Jan-18 13:32N 35°22' E 139°44'0 0.0
2015-Jan-18 12:32N 35°22' E 139°44'0 0.0
2015-Jan-18 11:32N 35°22' E 139°44'5 4.6
2015-Jan-18 10:33N 35°24' E 139°39'0 0.0
2015-Jan-18 09:33N 35°24' E 139°39'0 0.0
2015-Jan-18 08:32N 35°24' E 139°39'0 0.0
2015-Jan-18 07:32N 35°24' E 139°39'0 0.0
2015-Jan-18 06:29N 35°24' E 139°39'0 0.0
2015-Jan-18 05:29N 35°24' E 139°39'0 0.3
2015-Jan-18 04:33N 35°24' E 139°38'1 1.3
2015-Jan-18 03:32N 35°24' E 139°40'0 0.0
2015-Jan-18 02:23N 35°24' E 139°40'0 0.1
2015-Jan-18 01:32N 35°24' E 139°40'0 0.0
2015-Jan-18 00:32N 35°24' E 139°40'0 0.0
2015-Jan-17 23:32N 35°24' E 139°40'0 0.0
2015-Jan-17 22:32N 35°24' E 139°40'2 2.0
2015-Jan-17 21:33N 35°23' E 139°42'2 1.7
2015-Jan-17 20:33N 35°22' E 139°44'0 0.0
2015-Jan-17 19:31N 35°22' E 139°44'0 0.1
2015-Jan-17 18:31N 35°22' E 139°44'0 0.1
2015-Jan-17 17:31N 35°22' E 139°44'0 0.0
2015-Jan-17 16:31N 35°22' E 139°44'0 0.0
2015-Jan-17 15:31N 35°22' E 139°44'0 0.0
2015-Jan-17 14:28N 35°22' E 139°44'0 0.1
2015-Jan-17 13:31N 35°22' E 139°44'0 0.0
2015-Jan-17 12:31N 35°22' E 139°44'0 0.0
2015-Jan-17 11:28N 35°22' E 139°44'5 5.0
2015-Jan-17 10:33N 35°24' E 139°39'0 0.0
2015-Jan-17 09:33N 35°24' E 139°39'0 0.0
2015-Jan-17 08:33N 35°24' E 139°39'0 0.0
2015-Jan-17 07:30N 35°24' E 139°39'0 0.0
2015-Jan-17 06:30N 35°24' E 139°39'0 0.0
2015-Jan-17 05:33N 35°24' E 139°39'0 0.3
2015-Jan-17 04:33N 35°24' E 139°38'1 1.4
2015-Jan-17 03:31N 35°24' E 139°40'0 0.0
2015-Jan-17 02:31N 35°24' E 139°40'0 0.0
2015-Jan-17 01:28N 35°24' E 139°40'0 0.0
2015-Jan-17 00:28N 35°24' E 139°40'0 0.0
2015-Jan-16 23:31N 35°24' E 139°40'0 0.0
2015-Jan-16 22:31N 35°24' E 139°40'0 0.4
2015-Jan-16 21:33N 35°24' E 139°40'3 3.3
2015-Jan-16 20:33N 35°24' E 139°44'0 0.1
2015-Jan-16 19:33N 35°24' E 139°44'0 0.1
2015-Jan-16 18:33N 35°24' E 139°44'0 0.0
2015-Jan-16 17:33N 35°24' E 139°44'0 0.1
2015-Jan-16 16:33N 35°24' E 139°44'0 0.0
2015-Jan-16 15:33N 35°24' E 139°44'0 0.0
2015-Jan-16 14:33N 35°24' E 139°44'0 0.0
2015-Jan-16 13:33N 35°24' E 139°44'5 4.7
2015-Jan-16 12:34N 35°24' E 139°39'0 0.0
2015-Jan-16 11:34N 35°24' E 139°39'0 0.0
2015-Jan-16 10:31N 35°24' E 139°39'0 0.0
2015-Jan-16 09:31N 35°24' E 139°39'0 0.0
2015-Jan-16 08:31N 35°24' E 139°39'0 0.0
2015-Jan-16 07:31N 35°24' E 139°39'0 0.5
2015-Jan-16 06:33N 35°24' E 139°39'10 9.9
2015-Jan-16 05:33N 35°28' E 139°49'7 7.1
2015-Jan-16 04:33N 35°27' E 139°58'0 0.0
2015-Jan-16 03:33N 35°27' E 139°58'0 0.0
2015-Jan-16 02:26N 35°27' E 139°58'0 0.0
2015-Jan-16 01:32N 35°27' E 139°58'  
Track history (hours):
 
Tides and Currents Weather Stations Pressure Air Temp Water Temp Dewpoint Dewpoint Depression Visibility Wind Speed Wind Dir Waves Ship Positions

Jp Tsubaki

Last reported at 2015-Jan-25 23:30 UTC. Time now 2015-Jan-26 00:25 UTC.
Position N 35°24' E 139°39'.

Length 115 m; draft 6.5 m.

Type: Cargo ship. MMSI: 431000734.

Date/timePositionNaut miles runAvg speedWind from/ knotsBaromVisibWave heightAir tempDewpointWater temp
2015-Jan-25 23:30N 35°24' E 139°39'0 0.0
2015-Jan-25 22:33N 35°24' E 139°39'0 0.0
2015-Jan-25 21:30N 35°24' E 139°39'0 0.0
2015-Jan-25 20:33N 35°24' E 139°39'0 0.0
2015-Jan-25 19:30N 35°24' E 139°39'0 0.0
2015-Jan-25 18:33N 35°24' E 139°39'0 0.0
2015-Jan-25 17:30N 35°24' E 139°39'0 0.0
2015-Jan-25 16:30N 35°24' E 139°39'0 0.0
2015-Jan-25 15:33N 35°24' E 139°39'0 0.0
2015-Jan-25 14:33N 35°24' E 139°39'0 0.3
2015-Jan-25 13:34N 35°24' E 139°38'9 8.8
2015-Jan-25 12:33N 35°29' E 139°47'3 3.0
2015-Jan-25 11:33N 35°30' E 139°44'0 0.0
2015-Jan-25 10:33N 35°30' E 139°44'0 0.0
2015-Jan-25 09:33N 35°30' E 139°44'0 0.0
2015-Jan-25 08:27N 35°30' E 139°44'0 0.0
2015-Jan-25 07:33N 35°30' E 139°44'0 0.0
2015-Jan-25 06:33N 35°30' E 139°44'0 0.0
2015-Jan-25 05:33N 35°30' E 139°44'1 1.0
2015-Jan-25 04:33N 35°29' E 139°43'6 5.7
2015-Jan-25 03:34N 35°24' E 139°44'0 0.0
2015-Jan-25 02:31N 35°24' E 139°44'0 0.0
2015-Jan-25 01:28N 35°24' E 139°44'0 0.0
2015-Jan-25 00:31N 35°24' E 139°44'0 0.0
2015-Jan-24 23:33N 35°24' E 139°44'5 4.7
2015-Jan-24 22:33N 35°24' E 139°39'0 0.0
2015-Jan-24 21:31N 35°24' E 139°39'0 0.0
2015-Jan-24 20:31N 35°24' E 139°39'0 0.0
2015-Jan-24 19:31N 35°24' E 139°39'0 0.0
2015-Jan-24 18:32N 35°24' E 139°39'0 0.0
2015-Jan-24 17:29N 35°24' E 139°39'0 0.0
2015-Jan-24 16:31N 35°24' E 139°39'0 0.0
2015-Jan-24 15:29N 35°24' E 139°39'3 3.2
2015-Jan-24 14:33N 35°23' E 139°42'2 1.7
2015-Jan-24 13:33N 35°24' E 139°44'0 0.0
2015-Jan-24 12:33N 35°24' E 139°44'0 0.0
2015-Jan-24 11:33N 35°24' E 139°44'0 0.0
2015-Jan-24 10:33N 35°24' E 139°44'0 0.1
2015-Jan-24 09:33N 35°24' E 139°44'0 0.0
2015-Jan-24 08:33N 35°24' E 139°44'0 0.0
2015-Jan-24 07:33N 35°24' E 139°44'0 0.0
2015-Jan-24 06:33N 35°24' E 139°44'0 0.1
2015-Jan-24 05:33N 35°24' E 139°44'0 0.0
2015-Jan-24 04:33N 35°24' E 139°44'0 0.0
2015-Jan-24 03:33N 35°24' E 139°44'0 0.1
2015-Jan-24 02:33N 35°24' E 139°44'7 6.6
2015-Jan-24 01:33N 35°30' E 139°48'3 3.4
2015-Jan-24 00:33N 35°30' E 139°44'0 0.0
2015-Jan-23 23:32N 35°30' E 139°44'0 0.0
2015-Jan-23 22:32N 35°30' E 139°44'0 0.0
2015-Jan-23 21:32N 35°30' E 139°44'0 0.0
2015-Jan-23 20:32N 35°30' E 139°44'0 0.0
2015-Jan-23 19:32N 35°30' E 139°44'0 0.0
2015-Jan-23 18:32N 35°30' E 139°44'0 0.0
2015-Jan-23 17:32N 35°30' E 139°44'0 0.0
2015-Jan-23 16:33N 35°30' E 139°44'4 3.6
2015-Jan-23 15:33N 35°26' E 139°43'5 4.6
2015-Jan-23 14:33N 35°24' E 139°39'0 0.0
2015-Jan-23 13:33N 35°24' E 139°39'0 0.0
2015-Jan-23 12:33N 35°24' E 139°39'0 0.0
2015-Jan-23 11:33N 35°24' E 139°39'0 0.0
2015-Jan-23 10:33N 35°24' E 139°39'0 0.0
2015-Jan-23 09:33N 35°24' E 139°39'0 0.0
2015-Jan-23 08:33N 35°24' E 139°39'0 0.0
2015-Jan-23 07:33N 35°24' E 139°39'1 0.7
2015-Jan-23 06:33N 35°24' E 139°39'5 4.8
2015-Jan-23 05:33N 35°23' E 139°45'0 0.0
2015-Jan-23 04:33N 35°23' E 139°45'0 0.0
2015-Jan-23 03:24N 35°23' E 139°45'0 0.0
2015-Jan-23 02:33N 35°23' E 139°45'0 0.1
2015-Jan-23 01:33N 35°23' E 139°45'0 0.0
2015-Jan-23 00:33N 35°23' E 139°45'0 0.0
2015-Jan-22 23:33N 35°23' E 139°45'6 5.8
2015-Jan-22 22:33N 35°28' E 139°48'4 4.1
2015-Jan-22 21:33N 35°30' E 139°44'0 0.0
2015-Jan-22 20:33N 35°30' E 139°44'0 0.0
2015-Jan-22 19:33N 35°30' E 139°44'0 0.0
2015-Jan-22 18:33N 35°30' E 139°44'0 0.0
2015-Jan-22 17:33N 35°30' E 139°44'0 0.0
2015-Jan-22 16:33N 35°30' E 139°44'0 0.0
2015-Jan-22 15:33N 35°30' E 139°44'0 0.0
2015-Jan-22 14:33N 35°30' E 139°44'0 0.0
2015-Jan-22 13:33N 35°30' E 139°44'0 0.0
2015-Jan-22 12:33N 35°30' E 139°44'0 0.0
2015-Jan-22 11:33N 35°30' E 139°44'0 0.0
2015-Jan-22 10:33N 35°30' E 139°44'0 0.0
2015-Jan-22 09:33N 35°30' E 139°44'0 0.0
2015-Jan-22 08:33N 35°30' E 139°44'5 4.7
2015-Jan-22 07:33N 35°25' E 139°43'4 3.7
2015-Jan-22 06:33N 35°24' E 139°39'0 0.1
2015-Jan-22 05:33N 35°24' E 139°39'0 0.1
2015-Jan-22 04:33N 35°24' E 139°39'0 0.0
2015-Jan-22 03:33N 35°24' E 139°39'0 0.0
2015-Jan-22 02:30N 35°24' E 139°39'0 0.0
2015-Jan-22 01:33N 35°24' E 139°39'0 0.0
2015-Jan-22 00:33N 35°24' E 139°39'0 0.0
2015-Jan-21 23:33N 35°24' E 139°39'0 0.0
2015-Jan-21 22:48N 35°24' E 139°39'0 0.0
2015-Jan-21 22:45N 35°24' E 139°39'0 0.0
2015-Jan-21 22:33N 35°24' E 139°39'0 0.0
2015-Jan-21 21:33N 35°24' E 139°39'0 0.0
2015-Jan-21 20:33N 35°24' E 139°39'0 0.0
2015-Jan-21 19:33N 35°24' E 139°39'0 0.0
2015-Jan-21 18:33N 35°24' E 139°39'0 0.0
2015-Jan-21 17:30N 35°24' E 139°39'0 0.0
2015-Jan-21 16:33N 35°24' E 139°39'0 0.3
2015-Jan-21 15:33N 35°24' E 139°38'9 9.0
2015-Jan-21 14:34N 35°29' E 139°47'3 3.1
2015-Jan-21 13:33N 35°30' E 139°44'0 0.0
2015-Jan-21 12:33N 35°30' E 139°44'0 0.0
2015-Jan-21 11:33N 35°30' E 139°44'0 0.0
2015-Jan-21 10:33N 35°30' E 139°44'0 0.0
2015-Jan-21 09:33N 35°30' E 139°44'0 0.0
2015-Jan-21 08:34N 35°30' E 139°44'0 0.0
2015-Jan-21 07:30N 35°30' E 139°44'0 0.0
2015-Jan-21 06:33N 35°30' E 139°44'0 0.0
2015-Jan-21 05:33N 35°30' E 139°44'2 1.6
2015-Jan-21 04:34N 35°29' E 139°42'6 5.8
2015-Jan-21 03:34N 35°24' E 139°39'0 0.0
2015-Jan-21 02:33N 35°24' E 139°39'0 0.0
2015-Jan-21 01:33N 35°24' E 139°39'0 0.0
2015-Jan-21 00:33N 35°24' E 139°39'0 0.0
2015-Jan-20 23:33N 35°24' E 139°39'0 0.0
2015-Jan-20 22:33N 35°24' E 139°39'0 0.0
2015-Jan-20 21:33N 35°24' E 139°39'0 0.0
2015-Jan-20 20:33N 35°24' E 139°39'0 0.0
2015-Jan-20 19:30N 35°24' E 139°39'0 0.0
2015-Jan-20 18:33N 35°24' E 139°39'0 0.0
2015-Jan-20 17:33N 35°24' E 139°39'0 0.0
2015-Jan-20 16:33N 35°24' E 139°39'0 0.0
2015-Jan-20 15:33N 35°24' E 139°39'0 0.0
2015-Jan-20 14:33N 35°24' E 139°39'2 2.2
2015-Jan-20 13:34N 35°24' E 139°41'8 7.8
2015-Jan-20 12:34N 35°30' E 139°46'2 2.1
2015-Jan-20 11:33N 35°30' E 139°43'0 0.0
2015-Jan-20 10:33N 35°30' E 139°43'0 0.0
2015-Jan-20 09:33N 35°30' E 139°43'0 0.0
2015-Jan-20 08:33N 35°30' E 139°43'0 0.0
2015-Jan-20 07:33N 35°30' E 139°43'0 0.0
2015-Jan-20 06:33N 35°30' E 139°43'0 0.0
2015-Jan-20 05:30N 35°30' E 139°43'2 2.0
2015-Jan-20 04:33N 35°28' E 139°42'5 4.7
2015-Jan-20 03:33N 35°24' E 139°44'0 0.0
2015-Jan-20 02:33N 35°24' E 139°44'0 0.0
2015-Jan-20 01:22N 35°24' E 139°44'0 0.0
2015-Jan-20 00:31N 35°24' E 139°44'0 0.0
2015-Jan-19 23:28N 35°24' E 139°44'0 0.0
2015-Jan-19 22:31N 35°24' E 139°44'0 0.0
2015-Jan-19 21:31N 35°24' E 139°44'0 0.0
2015-Jan-19 20:31N 35°24' E 139°44'0 0.0
2015-Jan-19 19:31N 35°24' E 139°44'0 0.1
2015-Jan-19 18:31N 35°24' E 139°44'0 0.1
2015-Jan-19 17:31N 35°24' E 139°44'0 0.0
2015-Jan-19 16:31N 35°24' E 139°44'0 0.0
2015-Jan-19 15:31N 35°24' E 139°44'0 0.0
2015-Jan-19 14:31N 35°24' E 139°44'0 0.1
2015-Jan-19 13:34N 35°24' E 139°44'5 4.5
2015-Jan-19 12:34N 35°24' E 139°39'0 0.0
2015-Jan-19 11:34N 35°24' E 139°39'0 0.0
2015-Jan-19 10:31N 35°24' E 139°39'0 0.0
2015-Jan-19 09:31N 35°24' E 139°39'0 0.0
2015-Jan-19 08:31N 35°24' E 139°39'0 0.0
2015-Jan-19 07:31N 35°24' E 139°39'0 0.0
2015-Jan-19 06:31N 35°24' E 139°39'0 0.0
2015-Jan-19 05:31N 35°24' E 139°39'1 1.2
2015-Jan-19 04:33N 35°24' E 139°40'0 0.1
2015-Jan-19 03:33N 35°24' E 139°40'0 0.0
2015-Jan-19 02:33N 35°24' E 139°40'0 0.0
2015-Jan-19 01:33N 35°24' E 139°40'0 0.0
2015-Jan-19 00:33N 35°24' E 139°40'0 0.0
2015-Jan-18 23:33N 35°24' E 139°40'0 0.0
2015-Jan-18 22:33N 35°24' E 139°40'1 0.5
2015-Jan-18 21:34N 35°24' E 139°40'3 3.2
2015-Jan-18 20:32N 35°22' E 139°44'0 0.0
2015-Jan-18 19:32N 35°22' E 139°44'0 0.0
2015-Jan-18 18:32N 35°22' E 139°44'0 0.0
2015-Jan-18 17:32N 35°22' E 139°44'0 0.1
2015-Jan-18 16:32N 35°22' E 139°44'0 0.0
2015-Jan-18 15:32N 35°22' E 139°44'0 0.0
2015-Jan-18 14:32N 35°22' E 139°44'0 0.1
2015-Jan-18 13:32N 35°22' E 139°44'0 0.0
2015-Jan-18 12:32N 35°22' E 139°44'0 0.0
2015-Jan-18 11:32N 35°22' E 139°44'5 4.6
2015-Jan-18 10:33N 35°24' E 139°39'0 0.0
2015-Jan-18 09:33N 35°24' E 139°39'0 0.0
2015-Jan-18 08:32N 35°24' E 139°39'0 0.0
2015-Jan-18 07:32N 35°24' E 139°39'0 0.0
2015-Jan-18 06:29N 35°24' E 139°39'0 0.0
2015-Jan-18 05:29N 35°24' E 139°39'0 0.3
2015-Jan-18 04:33N 35°24' E 139°38'1 1.3
2015-Jan-18 03:32N 35°24' E 139°40'0 0.0
2015-Jan-18 02:23N 35°24' E 139°40'0 0.1
2015-Jan-18 01:32N 35°24' E 139°40'0 0.0
2015-Jan-18 00:32N 35°24' E 139°40'0 0.0
2015-Jan-17 23:32N 35°24' E 139°40'0 0.0
2015-Jan-17 22:32N 35°24' E 139°40'2 2.0
2015-Jan-17 21:33N 35°23' E 139°42'2 1.7
2015-Jan-17 20:33N 35°22' E 139°44'0 0.0
2015-Jan-17 19:31N 35°22' E 139°44'0 0.1
2015-Jan-17 18:31N 35°22' E 139°44'0 0.1
2015-Jan-17 17:31N 35°22' E 139°44'0 0.0
2015-Jan-17 16:31N 35°22' E 139°44'0 0.0
2015-Jan-17 15:31N 35°22' E 139°44'0 0.0
2015-Jan-17 14:28N 35°22' E 139°44'0 0.1
2015-Jan-17 13:31N 35°22' E 139°44'0 0.0
2015-Jan-17 12:31N 35°22' E 139°44'0 0.0
2015-Jan-17 11:28N 35°22' E 139°44'5 5.0
2015-Jan-17 10:33N 35°24' E 139°39'0 0.0
2015-Jan-17 09:33N 35°24' E 139°39'0 0.0
2015-Jan-17 08:33N 35°24' E 139°39'0 0.0
2015-Jan-17 07:30N 35°24' E 139°39'0 0.0
2015-Jan-17 06:30N 35°24' E 139°39'0 0.0
2015-Jan-17 05:33N 35°24' E 139°39'0 0.3
2015-Jan-17 04:33N 35°24' E 139°38'1 1.4
2015-Jan-17 03:31N 35°24' E 139°40'0 0.0
2015-Jan-17 02:31N 35°24' E 139°40'0 0.0
2015-Jan-17 01:28N 35°24' E 139°40'0 0.0
2015-Jan-17 00:28N 35°24' E 139°40'0 0.0
2015-Jan-16 23:31N 35°24' E 139°40'0 0.0
2015-Jan-16 22:31N 35°24' E 139°40'0 0.4
2015-Jan-16 21:33N 35°24' E 139°40'3 3.3
2015-Jan-16 20:33N 35°24' E 139°44'0 0.1
2015-Jan-16 19:33N 35°24' E 139°44'0 0.1
2015-Jan-16 18:33N 35°24' E 139°44'0 0.0
2015-Jan-16 17:33N 35°24' E 139°44'0 0.1
2015-Jan-16 16:33N 35°24' E 139°44'0 0.0
2015-Jan-16 15:33N 35°24' E 139°44'0 0.0
2015-Jan-16 14:33N 35°24' E 139°44'0 0.0
2015-Jan-16 13:33N 35°24' E 139°44'5 4.7
2015-Jan-16 12:34N 35°24' E 139°39'0 0.0
2015-Jan-16 11:34N 35°24' E 139°39'0 0.0
2015-Jan-16 10:31N 35°24' E 139°39'0 0.0
2015-Jan-16 09:31N 35°24' E 139°39'0 0.0
2015-Jan-16 08:31N 35°24' E 139°39'0 0.0
2015-Jan-16 07:31N 35°24' E 139°39'0 0.5
2015-Jan-16 06:33N 35°24' E 139°39'10 9.9
2015-Jan-16 05:33N 35°28' E 139°49'7 7.1
2015-Jan-16 04:33N 35°27' E 139°58'0 0.0
2015-Jan-16 03:33N 35°27' E 139°58'0 0.0
2015-Jan-16 02:26N 35°27' E 139°58'0 0.0
2015-Jan-16 01:32N 35°27' E 139°58'  

Dump ship's entire track history